createdAt,value
2017-08-02T00:01:12.517Z,88.40
2017-08-02T00:03:40.125Z,88.00
2017-08-02T00:06:07.742Z,88.51
2017-08-02T00:08:35.424Z,87.90
2017-08-02T00:11:03.033Z,88.33
2017-08-02T00:13:30.657Z,88.74
2017-08-02T00:15:58.340Z,88.92
2017-08-02T00:18:25.959Z,88.62
2017-08-02T00:20:53.571Z,89.20
2017-08-02T00:23:21.244Z,89.16
2017-08-02T00:25:48.868Z,89.30
2017-08-02T00:28:16.493Z,89.53
2017-08-02T00:30:44.181Z,89.85
2017-08-02T00:33:11.808Z,89.41
2017-08-02T00:35:39.417Z,89.45
2017-08-02T00:38:07.095Z,89.72
2017-08-02T00:40:34.719Z,89.52
2017-08-02T00:43:02.405Z,89.38
2017-08-02T00:45:30.081Z,89.84
2017-08-02T00:47:57.703Z,89.83
2017-08-02T00:50:25.483Z,90.09
2017-08-02T00:52:53.164Z,89.89
2017-08-02T00:55:20.783Z,89.71
2017-08-02T00:57:48.405Z,89.88
2017-08-02T01:00:16.074Z,89.69
2017-08-02T01:02:43.921Z,88.75
2017-08-02T01:05:11.868Z,89.38
2017-08-02T01:07:39.945Z,89.62
2017-08-02T01:10:07.602Z,89.88
2017-08-02T01:12:35.671Z,89.96
2017-08-02T01:15:03.340Z,89.26
2017-08-02T01:17:30.999Z,90.07
2017-08-02T01:19:58.628Z,89.60
2017-08-02T01:22:26.313Z,89.94
2017-08-02T01:24:54.174Z,89.88
2017-08-02T01:27:22.053Z,90.60
2017-08-02T01:29:50.084Z,90.81
2017-08-02T01:32:17.899Z,90.17
2017-08-02T01:34:45.858Z,90.10
2017-08-02T01:37:13.834Z,90.44
2017-08-02T01:39:41.797Z,90.91
2017-08-02T01:42:09.769Z,90.87
2017-08-02T01:44:37.472Z,91.05
2017-08-02T01:47:05.094Z,90.92
2017-08-02T01:49:32.720Z,91.15
2017-08-02T01:52:00.401Z,91.05
2017-08-02T01:54:28.018Z,91.27
2017-08-02T01:56:56.545Z,91.53
2017-08-02T01:59:24.208Z,91.48
2017-08-02T02:01:52.028Z,90.97
2017-08-02T02:04:19.749Z,90.39
2017-08-02T02:06:47.688Z,90.14
2017-08-02T02:09:15.503Z,90.01
2017-08-02T02:11:43.453Z,89.44
2017-08-02T02:14:11.525Z,88.66
2017-08-02T02:16:39.256Z,88.08
2017-08-02T02:19:07.222Z,87.83
2017-08-02T02:21:35.330Z,87.90
2017-08-02T02:24:03.180Z,88.85
2017-08-02T02:26:30.858Z,89.03
2017-08-02T02:28:58.839Z,89.32
2017-08-02T02:31:26.799Z,90.02
2017-08-02T02:33:54.526Z,89.79
2017-08-02T02:36:22.515Z,90.28
2017-08-02T02:38:50.382Z,89.94
2017-08-02T02:41:18.126Z,89.48
2017-08-02T02:43:46.133Z,91.13
2017-08-02T02:46:14.135Z,91.60
2017-08-02T02:48:42.071Z,92.02
2017-08-02T02:51:10.111Z,91.88
2017-08-02T02:53:38.058Z,91.53
2017-08-02T02:56:06.051Z,91.59
2017-08-02T02:58:34.045Z,91.51
2017-08-02T03:01:01.818Z,91.97
2017-08-02T03:03:29.752Z,92.18
2017-08-02T03:05:57.751Z,92.27
2017-08-02T03:08:25.805Z,91.84
2017-08-02T03:13:26.314Z,91.35
2017-08-02T03:15:54.211Z,90.71
2017-08-02T03:18:22.180Z,89.76
2017-08-02T03:20:50.022Z,89.26
2017-08-02T03:23:17.943Z,89.02
2017-08-02T03:25:45.779Z,88.49
2017-08-02T03:28:13.884Z,88.39
2017-08-02T03:30:41.736Z,87.75
2017-08-02T03:33:09.422Z,88.32
2017-08-02T03:35:37.447Z,88.63
2017-08-02T03:38:05.139Z,87.82
2017-08-02T03:40:32.933Z,87.57
2017-08-02T03:43:00.722Z,86.72
2017-08-02T03:45:28.747Z,86.63
2017-08-02T03:47:56.642Z,86.31
2017-08-02T03:50:24.670Z,86.19
2017-08-02T03:52:52.537Z,85.75
2017-08-02T03:55:20.382Z,80.36
2017-08-02T03:57:48.199Z,70.41
2017-08-02T04:00:16.153Z,65.31
2017-08-02T04:02:43.983Z,62.72
2017-08-02T04:05:11.724Z,60.23
2017-08-02T04:07:39.467Z,58.73
2017-08-02T04:10:07.259Z,56.54
2017-08-02T04:12:35.385Z,55.23
2017-08-02T04:15:03.063Z,54.15
2017-08-02T04:17:30.886Z,52.43
2017-08-02T04:19:58.604Z,51.57
2017-08-02T04:22:26.612Z,52.44
2017-08-02T04:24:54.415Z,51.64
2017-08-02T04:27:22.383Z,50.65
2017-08-02T04:29:50.248Z,49.01
2017-08-02T04:32:17.961Z,47.08
2017-08-02T04:34:45.930Z,48.77
2017-08-02T04:37:13.696Z,44.19
2017-08-02T04:39:41.688Z,42.10
2017-08-02T04:42:09.429Z,41.17
2017-08-02T04:44:37.450Z,39.01
2017-08-02T04:47:05.164Z,38.14
2017-08-02T04:49:33.083Z,38.58
2017-08-02T04:52:00.898Z,38.10
2017-08-02T04:54:28.919Z,36.74
2017-08-02T04:56:56.783Z,36.17
2017-08-02T04:59:24.503Z,34.35
2017-08-02T05:01:52.366Z,35.29
2017-08-02T05:04:20.403Z,35.30
2017-08-02T05:06:48.252Z,35.44
2017-08-02T05:09:16.092Z,35.92
2017-08-02T05:11:43.959Z,37.92
2017-08-02T05:14:11.825Z,35.10
2017-08-02T05:16:39.514Z,35.17
2017-08-02T05:19:07.535Z,33.09
2017-08-02T05:21:35.630Z,32.63
2017-08-02T05:24:03.333Z,33.09
2017-08-02T05:26:31.240Z,34.69
2017-08-02T05:28:59.259Z,34.19
2017-08-02T05:31:27.102Z,31.38
2017-08-02T05:33:55.199Z,31.48
2017-08-02T05:36:23.054Z,30.68
2017-08-02T05:38:50.726Z,32.89
2017-08-02T05:41:18.768Z,36.16
2017-08-02T05:43:46.659Z,37.30
2017-08-02T05:46:14.321Z,32.59
2017-08-02T05:48:42.269Z,33.16
2017-08-02T05:51:10.261Z,30.22
2017-08-02T05:53:37.922Z,32.06
2017-08-02T05:56:06.000Z,29.49
2017-08-02T05:58:34.008Z,28.10
2017-08-02T06:01:01.855Z,31.70
2017-08-02T06:03:29.772Z,32.14
2017-08-02T06:05:57.540Z,30.56
2017-08-02T06:08:25.340Z,30.83
2017-08-02T06:10:53.330Z,31.32
2017-08-02T06:13:21.194Z,30.37
2017-08-02T06:15:48.986Z,31.04
2017-08-02T06:18:16.803Z,32.07
2017-08-02T06:20:44.874Z,31.05
2017-08-02T06:25:46.751Z,30.76
2017-08-02T06:28:14.621Z,29.29
2017-08-02T06:30:42.486Z,28.32
2017-08-02T06:33:10.347Z,26.07
2017-08-02T06:35:38.073Z,25.33
2017-08-02T06:38:06.039Z,28.06
2017-08-02T06:40:33.857Z,28.53
2017-08-02T06:43:01.799Z,28.54
2017-08-02T06:45:29.688Z,27.50
2017-08-02T06:47:57.761Z,27.24
2017-08-02T06:50:25.801Z,27.96
2017-08-02T06:52:53.891Z,26.64
2017-08-02T06:55:21.737Z,26.50
2017-08-02T06:57:49.639Z,27.34
2017-08-02T07:00:17.349Z,28.70
2017-08-02T07:02:45.214Z,29.24
2017-08-02T07:05:13.079Z,29.37
2017-08-02T07:07:40.923Z,28.81
2017-08-02T07:10:08.795Z,30.54
2017-08-02T07:12:36.838Z,29.48
2017-08-02T07:15:04.676Z,26.68
2017-08-02T07:17:32.373Z,26.82
2017-08-02T07:20:00.020Z,26.79
2017-08-02T07:22:27.876Z,26.57
2017-08-02T07:24:55.620Z,28.50
2017-08-02T07:27:23.587Z,28.39
2017-08-02T07:29:51.496Z,25.87
2017-08-02T07:32:19.365Z,25.89
2017-08-02T07:34:47.089Z,26.04
2017-08-02T07:37:14.650Z,25.79
2017-08-02T07:39:42.299Z,26.88
2017-08-02T07:42:10.006Z,25.35
2017-08-02T07:44:37.575Z,25.15
2017-08-02T07:47:05.466Z,24.25
2017-08-02T07:49:33.409Z,22.90
2017-08-02T07:52:01.261Z,22.65
2017-08-02T07:54:29.140Z,23.51
2017-08-02T07:56:56.994Z,21.99
2017-08-02T07:59:24.737Z,22.73
2017-08-02T08:01:52.731Z,23.59
2017-08-02T08:04:20.474Z,26.38
2017-08-02T08:06:48.269Z,24.14
2017-08-02T08:09:16.343Z,23.61
2017-08-02T08:11:44.175Z,25.13
2017-08-02T08:14:12.510Z,24.92
2017-08-02T08:16:42.183Z,25.88
2017-08-02T08:19:11.970Z,24.99
2017-08-02T08:21:41.957Z,27.50
2017-08-02T08:24:11.256Z,29.25
2017-08-02T08:26:41.030Z,25.81
2017-08-02T08:29:11.007Z,25.67
2017-08-02T08:31:40.742Z,23.66
2017-08-02T08:34:09.923Z,25.77
2017-08-02T08:36:37.825Z,24.50
2017-08-02T08:39:05.665Z,23.88
2017-08-02T08:41:33.534Z,24.92
2017-08-02T08:44:01.330Z,22.95
2017-08-02T08:46:29.268Z,22.24
2017-08-02T08:48:57.009Z,24.45
2017-08-02T08:51:25.002Z,21.02
2017-08-02T08:53:52.745Z,21.29
2017-08-02T08:56:20.561Z,20.66
2017-08-02T08:58:48.579Z,21.92
2017-08-02T09:01:16.498Z,22.40
2017-08-02T09:03:44.335Z,19.96
2017-08-02T09:06:12.100Z,19.83
2017-08-02T09:08:40.072Z,20.16
2017-08-02T09:11:07.818Z,19.91
2017-08-02T09:13:35.685Z,21.56
2017-08-02T09:16:03.701Z,21.18
2017-08-02T09:18:31.565Z,22.01
2017-08-02T09:20:59.336Z,20.55
2017-08-02T09:23:27.300Z,20.87
2017-08-02T09:25:55.144Z,20.78
2017-08-02T09:28:23.012Z,22.02
2017-08-02T09:30:50.695Z,22.54
2017-08-02T09:33:18.547Z,23.27
2017-08-02T09:35:46.267Z,22.40
2017-08-02T09:38:14.082Z,22.87
2017-08-02T09:40:41.960Z,21.28
2017-08-02T09:43:09.675Z,22.04
2017-08-02T09:45:37.325Z,24.64
2017-08-02T09:48:05.278Z,22.72
2017-08-02T09:50:33.223Z,23.92
2017-08-02T09:53:01.292Z,23.75
2017-08-02T09:55:30.390Z,22.73
2017-08-02T09:57:58.319Z,23.58
2017-08-02T10:00:26.327Z,21.65
2017-08-02T10:02:54.058Z,22.70
2017-08-02T10:05:22.047Z,21.48
2017-08-02T10:07:50.110Z,24.30
2017-08-02T10:10:17.999Z,22.06
2017-08-02T10:12:45.591Z,24.87
2017-08-02T10:15:13.530Z,25.04
2017-08-02T10:17:41.261Z,23.53
2017-08-02T10:20:09.204Z,24.79
2017-08-02T10:22:36.972Z,24.89
2017-08-02T10:25:04.589Z,23.49
2017-08-02T10:27:32.357Z,23.90
2017-08-02T10:29:59.980Z,24.93
2017-08-02T10:32:27.538Z,26.26
2017-08-02T10:34:55.100Z,26.30
2017-08-02T10:37:22.763Z,25.20
2017-08-02T10:39:50.305Z,27.83
2017-08-02T10:42:18.183Z,23.88
2017-08-02T10:44:45.950Z,25.24
2017-08-02T10:47:13.751Z,27.52
2017-08-02T10:49:41.462Z,24.12
2017-08-02T10:52:09.426Z,23.53
2017-08-02T10:54:37.254Z,28.53
2017-08-02T10:57:05.065Z,28.45
2017-08-02T10:59:33.034Z,24.42
2017-08-02T11:02:00.951Z,23.18
2017-08-02T11:04:28.612Z,23.04
2017-08-02T11:06:56.469Z,23.33
2017-08-02T11:09:24.258Z,24.57
2017-08-02T11:11:52.007Z,24.95
2017-08-02T11:14:20.060Z,24.20
2017-08-02T11:16:47.806Z,24.32
2017-08-02T11:19:15.772Z,25.79
2017-08-02T11:21:43.475Z,26.07
2017-08-02T11:24:11.320Z,26.28
2017-08-02T11:26:39.198Z,27.53
2017-08-02T11:29:07.265Z,25.40
2017-08-02T11:31:35.313Z,24.73
2017-08-02T11:34:03.021Z,23.56
2017-08-02T11:36:30.989Z,26.49
2017-08-02T11:38:59.033Z,26.33
2017-08-02T11:41:26.779Z,25.33
2017-08-02T11:43:54.743Z,24.61
2017-08-02T11:46:22.452Z,23.56
2017-08-02T11:48:50.303Z,23.73
2017-08-02T11:51:17.987Z,24.43
2017-08-02T11:53:45.663Z,24.42
2017-08-02T11:56:13.508Z,26.45
2017-08-02T11:58:41.184Z,26.00
2017-08-02T12:01:09.244Z,24.47
2017-08-02T12:03:37.310Z,27.57
2017-08-02T12:06:05.057Z,28.06
2017-08-02T12:08:32.905Z,28.50
2017-08-02T12:11:00.889Z,24.42
2017-08-02T12:13:28.656Z,25.06
2017-08-02T12:15:56.720Z,27.62
2017-08-02T12:18:24.667Z,26.12
2017-08-02T12:20:52.588Z,26.30
2017-08-02T12:23:20.254Z,27.99
2017-08-02T12:25:48.295Z,27.85
2017-08-02T12:28:15.986Z,25.98
2017-08-02T12:30:43.686Z,27.63
2017-08-02T12:33:11.693Z,29.47
2017-08-02T12:35:39.381Z,27.54
2017-08-02T12:38:07.104Z,27.11
2017-08-02T12:40:35.113Z,28.36
2017-08-02T12:43:02.767Z,27.93
2017-08-02T12:45:30.442Z,29.17
2017-08-02T12:47:58.496Z,32.52
2017-08-02T12:50:26.268Z,33.23
2017-08-02T12:52:54.039Z,31.91
2017-08-02T12:55:21.899Z,36.10
2017-08-02T12:57:49.565Z,36.94
2017-08-02T13:00:17.286Z,36.01
2017-08-02T13:02:45.205Z,35.10
2017-08-02T13:05:13.089Z,35.18
2017-08-02T13:07:41.035Z,34.79
2017-08-02T13:10:08.903Z,32.62
2017-08-02T13:12:36.746Z,31.37
2017-08-02T13:15:04.540Z,32.86
2017-08-02T13:17:32.407Z,33.84
2017-08-02T13:20:00.061Z,33.08
2017-08-02T13:22:27.968Z,33.08
2017-08-02T13:24:55.691Z,33.91
2017-08-02T13:27:23.354Z,34.62
2017-08-02T13:29:51.031Z,32.89
2017-08-02T13:32:18.892Z,32.33
2017-08-02T13:34:46.551Z,32.59
2017-08-02T13:37:14.215Z,32.01
2017-08-02T13:39:42.281Z,33.06
2017-08-02T13:42:10.351Z,34.06
2017-08-02T13:44:38.218Z,34.99
2017-08-02T13:47:06.264Z,34.73
2017-08-02T13:49:34.010Z,33.26
2017-08-02T13:52:02.022Z,33.59
2017-08-02T13:54:30.044Z,34.85
2017-08-02T13:56:57.862Z,35.76
2017-08-02T13:59:25.673Z,33.89
2017-08-02T14:01:53.903Z,35.62
2017-08-02T14:04:21.572Z,33.79
2017-08-02T14:06:49.482Z,33.62
2017-08-02T14:09:17.132Z,33.07
2017-08-02T14:11:44.959Z,32.85
2017-08-02T14:14:13.037Z,32.69
2017-08-02T14:16:40.696Z,33.42
2017-08-02T14:19:08.541Z,33.77
2017-08-02T14:21:36.607Z,32.73
2017-08-02T14:24:04.550Z,33.15
2017-08-02T14:26:32.599Z,33.62
2017-08-02T14:29:00.607Z,34.11
2017-08-02T14:31:28.295Z,34.33
2017-08-02T14:33:56.142Z,33.89
2017-08-02T14:36:24.451Z,34.91
2017-08-02T14:38:52.300Z,35.12
2017-08-02T14:41:19.997Z,35.11
2017-08-02T14:43:47.916Z,35.73
2017-08-02T14:46:15.582Z,34.18
2017-08-02T14:48:43.301Z,35.09
2017-08-02T14:51:11.454Z,35.33
2017-08-02T14:53:39.313Z,35.23
2017-08-02T14:56:07.326Z,35.86
2017-08-02T14:58:35.043Z,36.58
2017-08-02T15:01:02.695Z,37.82
2017-08-02T15:03:30.366Z,36.94
2017-08-02T15:05:58.370Z,36.54
2017-08-02T15:08:26.099Z,36.87
2017-08-02T15:10:53.764Z,37.22
2017-08-02T15:13:21.624Z,37.70
2017-08-02T15:15:49.290Z,36.57
2017-08-02T15:18:17.006Z,35.96
2017-08-02T15:20:45.033Z,36.28
2017-08-02T15:23:12.740Z,36.55
2017-08-02T15:25:40.704Z,37.07
2017-08-02T15:28:08.415Z,38.50
2017-08-02T15:30:36.125Z,39.53
2017-08-02T15:33:04.157Z,38.81
2017-08-02T15:35:32.023Z,39.63
2017-08-02T15:37:59.867Z,39.73
2017-08-02T15:40:27.460Z,39.80
2017-08-02T15:42:55.419Z,40.23
2017-08-02T15:45:23.271Z,38.99
2017-08-02T15:47:51.138Z,38.37
2017-08-02T15:50:18.881Z,38.67
2017-08-02T15:52:46.751Z,38.59
2017-08-02T15:55:14.538Z,39.06
2017-08-02T15:57:42.408Z,39.82
2017-08-02T16:00:10.074Z,40.19
2017-08-02T16:02:37.918Z,40.59
2017-08-02T16:05:05.598Z,41.10
2017-08-02T16:07:33.268Z,41.28
2017-08-02T16:10:00.930Z,40.82
2017-08-02T16:12:28.864Z,41.13
2017-08-02T16:14:56.728Z,41.04
2017-08-02T16:17:24.730Z,41.93
2017-08-02T16:19:52.396Z,41.67
2017-08-02T16:22:20.108Z,41.86
2017-08-02T16:24:47.919Z,42.15
2017-08-02T16:27:15.868Z,42.74
2017-08-02T16:29:43.680Z,42.48
2017-08-02T16:32:11.629Z,43.15
2017-08-02T16:34:39.417Z,44.53
2017-08-02T16:37:07.262Z,44.74
2017-08-02T16:39:35.102Z,46.07
2017-08-02T16:42:02.783Z,47.64
2017-08-02T16:44:30.513Z,48.06
2017-08-02T16:46:58.093Z,49.90
2017-08-02T16:49:25.950Z,50.17
2017-08-02T16:51:53.641Z,50.99
2017-08-02T16:54:21.298Z,52.04
2017-08-02T16:56:49.369Z,52.36
2017-08-02T16:59:17.215Z,53.30
2017-08-02T17:01:45.083Z,54.40
2017-08-02T17:04:12.973Z,54.69
2017-08-02T17:06:40.692Z,56.18
2017-08-02T17:09:08.494Z,56.88
2017-08-02T17:11:36.230Z,57.28
2017-08-02T17:14:04.233Z,57.79
2017-08-02T17:16:31.968Z,58.45
2017-08-02T17:18:59.827Z,59.51
2017-08-02T17:21:27.428Z,59.78
2017-08-02T17:23:55.304Z,60.56
2017-08-02T17:26:23.209Z,62.42
2017-08-02T17:28:51.235Z,61.73
2017-08-02T17:31:18.945Z,61.85
2017-08-02T17:33:46.761Z,62.09
2017-08-02T17:36:14.427Z,62.48
2017-08-02T17:38:42.141Z,62.51
2017-08-02T17:41:09.956Z,63.33
2017-08-02T17:43:37.799Z,65.94
2017-08-02T17:46:05.670Z,66.65
2017-08-02T17:48:33.532Z,66.85
2017-08-02T17:51:01.213Z,67.38
2017-08-02T17:53:28.949Z,67.45
2017-08-02T17:55:56.744Z,67.08
2017-08-02T17:58:24.405Z,67.77
2017-08-02T18:00:52.146Z,67.98
2017-08-02T18:03:19.927Z,67.95
2017-08-02T18:05:47.803Z,69.27
2017-08-02T18:08:15.529Z,70.17
2017-08-02T18:10:43.396Z,71.14
2017-08-02T18:13:11.402Z,70.00
2017-08-02T18:15:39.067Z,70.53
2017-08-02T18:18:06.915Z,71.24
2017-08-02T18:20:34.596Z,71.60
2017-08-02T18:23:02.304Z,73.43
2017-08-02T18:25:30.130Z,74.49
2017-08-02T18:27:57.725Z,73.13
2017-08-02T18:30:25.655Z,72.25
2017-08-02T18:32:53.421Z,75.19
2017-08-02T18:35:21.042Z,74.91
2017-08-02T18:37:48.708Z,75.69
2017-08-02T18:40:16.376Z,74.25
2017-08-02T18:42:44.019Z,74.07
2017-08-02T18:45:11.638Z,74.40
2017-08-02T18:47:39.317Z,73.99
2017-08-02T18:50:06.925Z,76.47
2017-08-02T18:52:34.540Z,75.26
2017-08-02T18:55:02.224Z,76.24
2017-08-02T18:57:29.819Z,77.84
2017-08-02T18:59:57.421Z,77.06
2017-08-02T19:02:25.244Z,79.17
2017-08-02T19:04:53.119Z,79.83
2017-08-02T19:07:20.790Z,80.23
2017-08-02T19:09:48.434Z,80.00
2017-08-02T19:12:16.315Z,80.47
2017-08-02T19:14:44.024Z,79.96
2017-08-02T19:17:11.844Z,79.62
2017-08-02T19:19:39.444Z,79.80
2017-08-02T19:22:07.176Z,79.94
2017-08-02T19:24:35.204Z,80.80
2017-08-02T19:27:02.904Z,81.87
2017-08-02T19:29:31.368Z,82.30
2017-08-02T19:32:02.233Z,82.86
2017-08-02T19:34:32.935Z,83.68
2017-08-02T19:37:02.759Z,83.89
2017-08-02T19:39:30.638Z,84.25
2017-08-02T19:41:58.300Z,84.12
2017-08-02T19:44:25.963Z,84.08
2017-08-02T19:46:53.684Z,84.13
2017-08-02T19:49:21.652Z,84.50
2017-08-02T19:51:49.312Z,84.82
2017-08-02T19:54:16.913Z,84.85
2017-08-02T19:56:44.671Z,84.89
2017-08-02T19:59:12.329Z,85.08
2017-08-02T20:01:40.184Z,85.52
2017-08-02T20:04:07.864Z,85.68
2017-08-02T20:06:35.735Z,85.54
2017-08-02T20:09:03.399Z,86.03
2017-08-02T20:11:31.065Z,85.98
2017-08-02T20:13:58.744Z,85.84
2017-08-02T20:16:26.586Z,85.89
2017-08-02T20:18:54.313Z,84.85
2017-08-02T20:21:22.054Z,84.31
2017-08-02T20:23:49.778Z,84.16
2017-08-02T20:26:17.582Z,84.26
2017-08-02T20:28:45.475Z,84.45
2017-08-02T20:31:13.183Z,84.12
2017-08-02T20:33:40.847Z,84.10
2017-08-02T20:36:08.508Z,83.97
2017-08-02T20:38:36.164Z,83.74
2017-08-02T20:41:03.942Z,84.28
2017-08-02T20:43:31.857Z,85.14
2017-08-02T20:45:59.441Z,86.14
2017-08-02T20:48:27.288Z,86.30
2017-08-02T20:50:55.254Z,86.67
2017-08-02T20:53:22.983Z,86.54
2017-08-02T20:55:51.015Z,87.01
2017-08-02T20:58:18.898Z,87.27
2017-08-02T21:00:46.605Z,87.02
2017-08-02T21:03:14.470Z,86.86
2017-08-02T21:05:42.308Z,87.12
2017-08-02T21:08:10.148Z,87.62
2017-08-02T21:10:38.027Z,87.79
2017-08-02T21:13:06.085Z,87.79
2017-08-02T21:15:33.761Z,88.19
2017-08-02T21:18:01.745Z,88.09
2017-08-02T21:20:29.501Z,88.31
2017-08-02T21:22:57.559Z,87.92
2017-08-02T21:25:25.225Z,87.77
2017-08-02T21:27:53.141Z,87.84
2017-08-02T21:30:21.103Z,87.98
2017-08-02T21:32:49.029Z,88.47
2017-08-02T21:35:17.040Z,88.85
2017-08-02T21:37:44.882Z,89.13
2017-08-02T21:40:12.634Z,88.94
2017-08-02T21:42:40.312Z,88.19
2017-08-02T21:45:08.012Z,88.25
2017-08-02T21:47:35.828Z,88.09
2017-08-02T21:50:03.889Z,88.18
2017-08-02T21:52:31.762Z,88.45
2017-08-02T21:54:59.352Z,88.51
2017-08-02T21:57:27.050Z,88.34
2017-08-02T21:59:54.930Z,88.18
2017-08-02T22:02:22.611Z,88.57
2017-08-02T22:04:50.644Z,88.50
2017-08-02T22:07:18.553Z,88.59
2017-08-02T22:09:46.281Z,88.41
2017-08-02T22:12:14.049Z,88.75
2017-08-02T22:14:41.748Z,88.85
2017-08-02T22:17:09.610Z,88.82
2017-08-02T22:19:37.525Z,88.87
2017-08-02T22:22:05.341Z,88.84
2017-08-02T22:24:33.059Z,88.96
2017-08-02T22:27:01.048Z,89.26
2017-08-02T22:29:28.740Z,89.54
2017-08-02T22:31:56.366Z,89.58
2017-08-02T22:34:24.473Z,89.32
2017-08-02T22:36:52.342Z,88.89
2017-08-02T22:39:20.185Z,88.67
2017-08-02T22:41:47.931Z,88.74
2017-08-02T22:44:15.795Z,88.83
2017-08-02T22:46:43.606Z,88.77
2017-08-02T22:49:11.467Z,89.04
2017-08-02T22:51:39.127Z,88.29
2017-08-02T22:54:06.840Z,88.30
2017-08-02T22:56:34.865Z,88.39
2017-08-02T22:59:02.529Z,88.87
2017-08-02T23:01:30.364Z,89.27
2017-08-02T23:03:58.261Z,89.59
2017-08-02T23:06:25.976Z,89.92
2017-08-02T23:08:53.983Z,89.55
2017-08-02T23:11:21.932Z,89.51
2017-08-02T23:13:49.875Z,89.75
2017-08-02T23:16:17.765Z,89.80
2017-08-02T23:18:45.439Z,89.60
2017-08-02T23:21:13.106Z,89.33
2017-08-02T23:23:40.917Z,89.51
2017-08-02T23:26:08.591Z,89.26
2017-08-02T23:28:36.500Z,89.30
2017-08-02T23:31:04.243Z,89.28
2017-08-02T23:33:32.048Z,89.58
2017-08-02T23:35:59.900Z,89.63
2017-08-02T23:38:27.579Z,89.53
2017-08-02T23:40:55.555Z,89.40
2017-08-02T23:43:23.454Z,89.30
2017-08-02T23:45:51.384Z,89.35
2017-08-02T23:48:19.457Z,89.86
2017-08-02T23:50:47.066Z,89.68
2017-08-02T23:53:14.779Z,89.66
2017-08-02T23:55:42.851Z,89.43
2017-08-02T23:58:10.582Z,89.63
